createdAt,value
2018-03-24T00:01:04.170Z,2.4
2018-03-24T00:02:13.877Z,2.5
2018-03-24T00:03:23.061Z,2.43
2018-03-24T00:04:33.022Z,2.43
2018-03-24T00:05:42.980Z,2.43
2018-03-24T00:06:52.941Z,2.4
2018-03-24T00:08:02.925Z,2.39
2018-03-24T00:09:12.886Z,2.43
2018-03-24T00:10:22.836Z,2.46
2018-03-24T00:11:32.800Z,2.46
2018-03-24T00:12:42.847Z,2.46
2018-03-24T00:13:52.565Z,2.47
2018-03-24T00:15:02.277Z,2.51
2018-03-24T00:16:11.971Z,2.46
2018-03-24T00:17:21.932Z,2.47
2018-03-24T00:18:31.648Z,2.5
2018-03-24T00:19:41.607Z,2.47
2018-03-24T00:20:51.327Z,2.4
2018-03-24T00:22:01.064Z,2.41
2018-03-24T00:23:10.790Z,2.39
2018-03-24T00:24:20.237Z,2.41
2018-03-24T00:25:29.675Z,2.37
2018-03-24T00:26:39.134Z,2.39
2018-03-24T00:27:48.832Z,2.43
2018-03-24T00:28:58.291Z,2.36
2018-03-24T00:30:08.001Z,2.4
2018-03-24T00:31:17.701Z,2.46
2018-03-24T00:32:27.656Z,2.46
2018-03-24T00:33:37.104Z,2.39
2018-03-24T00:34:46.548Z,2.39
2018-03-24T00:35:56.253Z,2.36
2018-03-24T00:37:06.210Z,2.28
2018-03-24T00:38:15.916Z,2.3
2018-03-24T00:39:25.869Z,2.39
2018-03-24T00:40:35.323Z,2.46
2018-03-24T00:41:45.036Z,2.4
2018-03-24T00:42:54.733Z,2.36
2018-03-24T00:44:04.166Z,2.3
2018-03-24T00:45:13.876Z,2.34
2018-03-24T00:46:23.336Z,2.39
2018-03-24T00:47:33.034Z,2.26
2018-03-24T00:48:42.730Z,2.28
2018-03-24T00:49:51.922Z,2.34
2018-03-24T00:51:01.603Z,2.26
2018-03-24T00:52:11.310Z,2.34
2018-03-24T00:53:21.280Z,2.25
2018-03-24T00:54:30.457Z,2.37
2018-03-24T00:55:39.955Z,2.33
2018-03-24T00:56:49.658Z,2.43
2018-03-24T00:57:59.370Z,2.36
2018-03-24T00:59:08.806Z,2.39
2018-03-24T01:00:18.253Z,2.3
2018-03-24T01:01:27.945Z,2.3
2018-03-24T01:02:37.910Z,2.39
2018-03-24T01:03:47.600Z,2.34
2018-03-24T01:04:57.297Z,2.37
2018-03-24T01:06:07.261Z,2.39
2018-03-24T01:07:17.229Z,2.39
2018-03-24T01:08:26.929Z,2.41
2018-03-24T01:09:36.891Z,2.39
2018-03-24T01:10:46.602Z,2.39
2018-03-24T01:11:56.319Z,2.28
2018-03-24T01:13:06.277Z,2.32
2018-03-24T01:14:16.234Z,2.28
2018-03-24T01:15:26.210Z,2.36
2018-03-24T01:16:35.648Z,2.32
2018-03-24T01:17:45.613Z,2.32
2018-03-24T01:18:55.065Z,2.25
2018-03-24T01:20:04.779Z,2.34
2018-03-24T01:21:14.476Z,2.26
2018-03-24T01:22:24.439Z,2.32
2018-03-24T01:23:34.153Z,2.28
2018-03-24T01:24:44.127Z,2.32
2018-03-24T01:25:54.097Z,2.32
2018-03-24T01:27:04.050Z,2.3
2018-03-24T01:28:14.055Z,2.34
2018-03-24T01:29:23.759Z,2.36
2018-03-24T01:30:33.720Z,2.46
2018-03-24T01:31:43.177Z,2.33
2018-03-24T01:32:53.132Z,2.33
2018-03-24T01:34:02.833Z,2.39
2018-03-24T01:35:12.803Z,2.34
2018-03-24T01:36:22.785Z,2.26
2018-03-24T01:37:32.497Z,2.28
2018-03-24T01:38:42.189Z,2.4
2018-03-24T01:39:51.884Z,2.32
2018-03-24T01:41:01.590Z,2.3
2018-03-24T01:42:11.556Z,2.32
2018-03-24T01:43:20.996Z,2.32
2018-03-24T01:44:30.952Z,2.36
2018-03-24T01:45:40.647Z,2.3
2018-03-24T01:46:50.592Z,2.28
2018-03-24T01:48:00.556Z,2.3
2018-03-24T01:49:10.008Z,2.21
2018-03-24T01:50:19.463Z,2.21
2018-03-24T01:51:29.186Z,2.16
2018-03-24T01:52:38.897Z,2.14
2018-03-24T01:53:48.589Z,2.19
2018-03-24T01:54:58.301Z,2.16
2018-03-24T01:56:08.264Z,2.22
2018-03-24T01:57:17.186Z,2.25
2018-03-24T01:58:26.885Z,2.23
2018-03-24T01:59:36.862Z,2.32
2018-03-24T02:00:46.560Z,2.28
2018-03-24T02:01:56.519Z,2.25
2018-03-24T02:03:06.224Z,2.32
2018-03-24T02:04:15.916Z,2.32
2018-03-24T02:05:25.886Z,2.26
2018-03-24T02:06:35.588Z,2.32
2018-03-24T02:07:45.303Z,2.23
2018-03-24T02:08:55.263Z,2.28
2018-03-24T02:10:04.697Z,2.25
2018-03-24T02:11:14.400Z,2.32
2018-03-24T02:12:23.843Z,2.32
2018-03-24T02:13:33.808Z,2.33
2018-03-24T02:14:43.771Z,2.34
2018-03-24T02:15:53.464Z,2.26
2018-03-24T02:17:03.436Z,2.16
2018-03-24T02:18:13.404Z,2.32
2018-03-24T02:19:23.376Z,2.26
2018-03-24T02:20:33.341Z,2.3
2018-03-24T02:21:43.038Z,2.26
2018-03-24T02:22:52.981Z,2.28
2018-03-24T02:24:02.937Z,2.23
2018-03-24T02:25:12.910Z,2.32
2018-03-24T02:26:22.878Z,2.34
2018-03-24T02:27:32.320Z,2.3
2018-03-24T02:28:42.287Z,2.26
2018-03-24T02:29:52.257Z,2.28
2018-03-24T02:31:02.033Z,2.32
2018-03-24T02:32:12.025Z,2.32
2018-03-24T02:33:21.749Z,2.34
2018-03-24T02:34:31.213Z,2.3
2018-03-24T02:35:40.921Z,2.37
2018-03-24T02:36:50.897Z,2.37
2018-03-24T02:38:00.878Z,2.33
2018-03-24T02:39:10.397Z,2.34
2018-03-24T02:40:20.360Z,2.41
2018-03-24T02:41:30.332Z,2.28
2018-03-24T02:42:39.510Z,2.3
2018-03-24T02:43:48.945Z,2.28
2018-03-24T02:44:58.921Z,2.37
2018-03-24T02:46:08.896Z,2.37
2018-03-24T02:47:18.861Z,2.4
2018-03-24T02:48:28.831Z,2.33
2018-03-24T02:49:38.897Z,2.41
2018-03-24T02:50:48.886Z,2.33
2018-03-24T02:51:58.603Z,2.33
2018-03-24T02:53:07.784Z,2.32
2018-03-24T02:54:17.511Z,2.37
2018-03-24T02:55:26.962Z,2.37
2018-03-24T02:56:36.443Z,2.4
2018-03-24T02:57:46.421Z,2.36
2018-03-24T02:58:56.398Z,2.32
2018-03-24T03:00:05.844Z,2.33
2018-03-24T03:01:15.824Z,2.26
2018-03-24T03:02:25.827Z,2.34
2018-03-24T03:03:35.545Z,2.34
2018-03-24T03:04:45.512Z,2.3
2018-03-24T03:05:55.492Z,2.33
2018-03-24T03:07:05.226Z,2.32
2018-03-24T03:08:14.948Z,2.32
2018-03-24T03:09:24.648Z,2.3
2018-03-24T03:10:34.367Z,2.33
2018-03-24T03:11:44.320Z,2.23
2018-03-24T03:12:54.268Z,2.3
2018-03-24T03:14:04.237Z,2.25
2018-03-24T03:15:14.196Z,2.3
2018-03-24T03:16:24.147Z,2.33
2018-03-24T03:17:34.111Z,2.3
2018-03-24T03:18:44.087Z,2.3
2018-03-24T03:19:53.803Z,2.26
2018-03-24T03:21:03.986Z,2.3
2018-03-24T03:22:13.687Z,2.26
2018-03-24T03:23:23.386Z,2.22
2018-03-24T03:24:33.361Z,2.23
2018-03-24T03:25:43.088Z,2.16
2018-03-24T03:26:53.043Z,2.15
2018-03-24T03:28:03.184Z,2.26
2018-03-24T03:29:12.943Z,2.28
2018-03-24T03:30:22.626Z,2.3
2018-03-24T03:31:32.596Z,2.26
2018-03-24T03:32:42.307Z,2.25
2018-03-24T03:33:52.260Z,2.28
2018-03-24T03:35:01.434Z,2.32
2018-03-24T03:36:10.882Z,2.19
2018-03-24T03:37:20.844Z,2.19
2018-03-24T03:38:30.279Z,2.25
2018-03-24T03:39:40.135Z,2.21
2018-03-24T03:40:49.673Z,2.32
2018-03-24T03:41:59.641Z,2.26
2018-03-24T03:43:09.397Z,2.23
2018-03-24T03:44:19.366Z,2.21
2018-03-24T03:45:28.796Z,2.26
2018-03-24T03:46:38.503Z,2.25
2018-03-24T03:47:47.967Z,2.3
2018-03-24T03:48:57.671Z,2.26
2018-03-24T03:50:07.648Z,2.26
2018-03-24T03:51:17.346Z,2.32
2018-03-24T03:52:27.307Z,2.3
2018-03-24T03:53:37.262Z,2.26
2018-03-24T03:54:46.696Z,2.3
2018-03-24T03:55:56.656Z,2.18
2018-03-24T03:57:06.616Z,2.22
2018-03-24T03:58:16.329Z,2.3
2018-03-24T03:59:26.280Z,2.28
2018-03-24T04:00:35.979Z,2.3
2018-03-24T04:01:45.686Z,2.32
2018-03-24T04:02:55.122Z,2.32
2018-03-24T04:04:04.579Z,2.28
2018-03-24T04:05:14.544Z,2.33
2018-03-24T04:06:24.232Z,2.33
2018-03-24T04:07:34.207Z,2.32
2018-03-24T04:08:44.162Z,2.21
2018-03-24T04:09:53.871Z,2.26
2018-03-24T04:11:03.873Z,2.26
2018-03-24T04:12:14.050Z,2.26
2018-03-24T04:13:23.738Z,2.32
2018-03-24T04:14:33.190Z,2.23
2018-03-24T04:15:42.896Z,2.26
2018-03-24T04:16:52.592Z,2.21
2018-03-24T04:18:02.551Z,2.21
2018-03-24T04:19:12.251Z,2.3
2018-03-24T04:20:22.235Z,2.3
2018-03-24T04:21:32.205Z,2.23
2018-03-24T04:22:42.155Z,2.3
2018-03-24T04:23:51.845Z,2.28
2018-03-24T04:25:01.545Z,2.25
2018-03-24T04:26:11.253Z,2.28
2018-03-24T04:27:21.214Z,2.25
2018-03-24T04:28:31.185Z,2.25
2018-03-24T04:29:40.888Z,2.21
2018-03-24T04:30:50.597Z,2.23
2018-03-24T04:31:59.772Z,2.22
2018-03-24T04:33:09.489Z,2.3
2018-03-24T04:34:18.937Z,2.22
2018-03-24T04:35:28.636Z,2.23
2018-03-24T04:36:38.597Z,2.23
2018-03-24T04:37:48.302Z,2.22
2018-03-24T04:38:58.265Z,2.19
2018-03-24T04:40:08.222Z,2.26
2018-03-24T04:41:18.179Z,2.28
2018-03-24T04:42:28.159Z,2.21
2018-03-24T04:43:38.121Z,2.22
2018-03-24T04:44:47.837Z,2.33
2018-03-24T04:45:57.839Z,2.21
2018-03-24T04:47:07.275Z,2.33
2018-03-24T04:48:16.971Z,2.33
2018-03-24T04:49:26.931Z,2.34
2018-03-24T04:50:36.885Z,2.32
2018-03-24T04:51:46.851Z,2.3
2018-03-24T04:52:56.811Z,2.33
2018-03-24T04:54:06.785Z,2.34
2018-03-24T04:55:16.746Z,2.26
2018-03-24T04:56:26.704Z,2.3
2018-03-24T04:57:36.684Z,2.3
2018-03-24T04:58:46.645Z,2.23
2018-03-24T04:59:56.628Z,2.26
2018-03-24T05:01:06.586Z,2.3
2018-03-24T05:02:16.296Z,2.32
2018-03-24T05:03:26.006Z,2.28
2018-03-24T05:04:35.965Z,2.28
2018-03-24T05:05:45.935Z,2.3
2018-03-24T05:06:55.632Z,2.33
2018-03-24T05:08:05.612Z,2.32
2018-03-24T05:09:15.315Z,2.39
2018-03-24T05:10:25.037Z,2.37
2018-03-24T05:11:35.004Z,2.4
2018-03-24T05:12:44.951Z,2.43
2018-03-24T05:13:54.389Z,2.36
2018-03-24T05:15:04.352Z,2.44
2018-03-24T05:16:14.310Z,2.44
2018-03-24T05:17:24.034Z,2.46
2018-03-24T05:18:33.996Z,2.46
2018-03-24T05:19:43.978Z,2.44
2018-03-24T05:20:53.933Z,2.36
2018-03-24T05:22:03.887Z,2.41
2018-03-24T05:23:13.843Z,2.43
2018-03-24T05:24:23.800Z,2.44
2018-03-24T05:25:33.753Z,2.54
2018-03-24T05:26:43.453Z,2.5
2018-03-24T05:27:52.908Z,2.41
2018-03-24T05:29:02.876Z,2.52
2018-03-24T05:30:12.572Z,2.51
2018-03-24T05:31:22.279Z,2.62
2018-03-24T05:32:32.243Z,2.58
2018-03-24T05:33:42.207Z,2.58
2018-03-24T05:34:52.175Z,2.69
2018-03-24T05:36:02.135Z,2.61
2018-03-24T05:37:12.094Z,2.58
2018-03-24T05:38:21.787Z,2.58
2018-03-24T05:39:31.753Z,2.73
2018-03-24T05:40:41.716Z,2.68
2018-03-24T05:41:51.422Z,2.59
2018-03-24T05:43:01.377Z,2.64
2018-03-24T05:44:11.339Z,2.62
2018-03-24T05:45:21.043Z,2.62
2018-03-24T05:46:30.745Z,2.7
2018-03-24T05:47:40.708Z,2.68
2018-03-24T05:48:51.048Z,2.68
2018-03-24T05:50:00.772Z,2.65
2018-03-24T05:51:10.736Z,2.61
2018-03-24T05:52:20.427Z,2.64
2018-03-24T05:53:30.391Z,2.7
2018-03-24T05:54:40.347Z,2.65
2018-03-24T05:55:50.314Z,2.68
2018-03-24T05:57:00.296Z,2.7
2018-03-24T05:58:10.012Z,2.7
2018-03-24T05:59:19.977Z,2.64
2018-03-24T06:00:29.684Z,2.68
2018-03-24T06:01:39.639Z,2.72
2018-03-24T06:02:49.391Z,2.61
2018-03-24T06:03:59.111Z,2.59
2018-03-24T06:05:08.852Z,2.59
2018-03-24T06:06:18.832Z,2.58
2018-03-24T06:07:28.812Z,2.7
2018-03-24T06:08:38.783Z,2.64
2018-03-24T06:09:48.484Z,2.68
2018-03-24T06:10:58.458Z,2.68
2018-03-24T06:12:08.168Z,2.69
2018-03-24T06:13:18.136Z,2.65
2018-03-24T06:14:28.120Z,2.69
2018-03-24T06:15:38.072Z,2.61
2018-03-24T06:16:47.775Z,2.52
2018-03-24T06:17:57.213Z,2.41
2018-03-24T06:19:07.175Z,2.4
2018-03-24T06:20:17.129Z,2.4
2018-03-24T06:21:26.569Z,2.5
2018-03-24T06:22:36.555Z,2.47
2018-03-24T06:23:46.534Z,2.51
2018-03-24T06:24:56.495Z,2.59
2018-03-24T06:26:06.461Z,2.62
2018-03-24T06:27:16.173Z,2.62
2018-03-24T06:28:26.159Z,2.65
2018-03-24T06:29:35.874Z,2.69
2018-03-24T06:30:45.572Z,2.72
2018-03-24T06:31:55.281Z,2.73
2018-03-24T06:33:05.245Z,2.65
2018-03-24T06:34:15.212Z,2.69
2018-03-24T06:35:24.940Z,2.65
2018-03-24T06:36:34.927Z,2.57
2018-03-24T06:37:44.657Z,2.65
2018-03-24T06:38:54.626Z,2.69
2018-03-24T06:40:04.348Z,2.73
2018-03-24T06:41:14.314Z,2.77
2018-03-24T06:42:23.750Z,2.73
2018-03-24T06:43:33.754Z,2.79
2018-03-24T06:44:43.828Z,2.82
2018-03-24T06:45:53.615Z,2.91
2018-03-24T06:47:03.321Z,2.91
2018-03-24T06:48:12.767Z,2.94
2018-03-24T06:49:22.484Z,2.94
2018-03-24T06:50:32.445Z,2.91
2018-03-24T06:51:42.426Z,2.93
2018-03-24T06:52:52.404Z,2.95
2018-03-24T06:54:02.372Z,2.95
2018-03-24T06:55:12.138Z,2.95
2018-03-24T06:56:22.177Z,2.97
2018-03-24T06:57:31.899Z,3.06
2018-03-24T06:58:41.868Z,3.03
2018-03-24T06:59:51.579Z,3.03
2018-03-24T07:01:01.279Z,2.95
2018-03-24T07:02:11.248Z,2.93
2018-03-24T07:03:21.204Z,2.95
2018-03-24T07:04:31.194Z,2.98
2018-03-24T07:05:41.171Z,3
2018-03-24T07:06:50.881Z,2.94
2018-03-24T07:08:00.839Z,2.95
2018-03-24T07:09:10.572Z,3.05
2018-03-24T07:10:20.540Z,3.12
2018-03-24T07:11:30.247Z,3.09
2018-03-24T07:12:39.673Z,3.12
2018-03-24T07:13:49.639Z,3.12
2018-03-24T07:14:59.098Z,3.11
2018-03-24T07:16:09.071Z,3.11
2018-03-24T07:17:19.051Z,3.01
2018-03-24T07:18:29.134Z,2.94
2018-03-24T07:19:39.111Z,2.98
2018-03-24T07:20:49.090Z,2.97
2018-03-24T07:21:59.052Z,3.06
2018-03-24T07:23:09.023Z,3.06
2018-03-24T07:24:18.716Z,3.08
2018-03-24T07:25:28.700Z,3.27
2018-03-24T07:26:38.415Z,3.15
2018-03-24T07:27:48.382Z,3.26
2018-03-24T07:28:58.393Z,3.34
2018-03-24T07:30:08.147Z,3.46
2018-03-24T07:31:18.126Z,3.48
2018-03-24T07:32:28.090Z,3.58
2018-03-24T07:33:37.796Z,3.59
2018-03-24T07:34:47.497Z,3.61
2018-03-24T07:35:57.209Z,3.61
2018-03-24T07:37:07.170Z,3.66
2018-03-24T07:38:17.137Z,3.68
2018-03-24T07:39:27.108Z,3.66
2018-03-24T07:40:37.090Z,3.67
2018-03-24T07:41:46.815Z,3.68
2018-03-24T07:42:56.784Z,3.59
2018-03-24T07:44:06.753Z,3.63
2018-03-24T07:45:16.722Z,3.58
2018-03-24T07:46:26.477Z,3.66
2018-03-24T07:47:36.252Z,3.66
2018-03-24T07:48:46.308Z,3.73
2018-03-24T07:49:56.017Z,3.71
2018-03-24T07:51:05.745Z,3.73
2018-03-24T07:52:15.706Z,3.7
2018-03-24T07:53:25.680Z,3.86
2018-03-24T07:54:35.391Z,3.85
2018-03-24T07:55:45.418Z,3.82
2018-03-24T07:56:55.382Z,3.92
2018-03-24T07:58:05.084Z,3.96
2018-03-24T07:59:15.068Z,4
2018-03-24T08:00:24.778Z,3.94
2018-03-24T08:01:34.747Z,3.99
2018-03-24T08:02:44.449Z,3.95
2018-03-24T08:03:54.409Z,3.99
2018-03-24T08:05:04.141Z,3.92
2018-03-24T08:06:14.114Z,3.94
2018-03-24T08:07:23.822Z,3.95
2018-03-24T08:08:33.798Z,3.99
2018-03-24T08:09:43.669Z,4.1
2018-03-24T08:10:53.653Z,4.22
2018-03-24T08:12:03.623Z,4.34
2018-03-24T08:13:13.587Z,4.22
2018-03-24T08:14:23.568Z,4.02
2018-03-24T08:15:33.016Z,4.2
2018-03-24T08:16:42.981Z,4.14
2018-03-24T08:17:52.444Z,4.14
2018-03-24T08:19:02.144Z,4.04
2018-03-24T08:20:11.849Z,4
2018-03-24T08:21:21.576Z,4.18
2018-03-24T08:22:31.314Z,4.16
2018-03-24T08:23:40.502Z,4.1
2018-03-24T08:24:50.471Z,4.03
2018-03-24T08:26:00.454Z,3.96
2018-03-24T08:27:10.165Z,3.89
2018-03-24T08:28:20.150Z,3.92
2018-03-24T08:29:29.875Z,3.91
2018-03-24T08:30:39.062Z,3.99
2018-03-24T08:31:49.059Z,3.99
2018-03-24T08:32:59.026Z,4.09
2018-03-24T08:34:08.489Z,4.2
2018-03-24T08:35:17.950Z,4.25
2018-03-24T08:36:27.928Z,4.22
2018-03-24T08:37:37.628Z,4.22
2018-03-24T08:38:47.592Z,4.27
2018-03-24T08:39:57.032Z,4.25
2018-03-24T08:41:06.768Z,4.38
2018-03-24T08:42:16.215Z,4.4
2018-03-24T08:43:26.193Z,4.3
2018-03-24T08:44:35.631Z,4.28
2018-03-24T08:45:44.861Z,4.31
2018-03-24T08:46:54.571Z,4.43
2018-03-24T08:48:04.289Z,4.46
2018-03-24T08:49:14.259Z,4.53
2018-03-24T08:50:23.970Z,4.53
2018-03-24T08:51:33.151Z,4.63
2018-03-24T08:52:42.594Z,4.66
2018-03-24T08:53:52.052Z,4.61
2018-03-24T08:55:01.506Z,4.6
2018-03-24T08:56:11.478Z,4.64
2018-03-24T08:57:20.922Z,4.64
2018-03-24T08:58:30.892Z,4.67
2018-03-24T08:59:40.857Z,4.67
2018-03-24T09:00:50.813Z,4.75
2018-03-24T09:02:00.506Z,4.74
2018-03-24T09:03:10.230Z,4.75
2018-03-24T09:04:19.992Z,4.86
2018-03-24T09:05:29.718Z,4.87
2018-03-24T09:06:39.688Z,4.75
2018-03-24T09:07:49.144Z,4.76
2018-03-24T09:08:58.845Z,4.7
2018-03-24T09:10:08.319Z,4.67
2018-03-24T09:11:18.021Z,4.67
2018-03-24T09:12:27.481Z,4.71
2018-03-24T09:13:37.176Z,4.66
2018-03-24T09:14:46.879Z,4.66
2018-03-24T09:15:56.841Z,4.64
2018-03-24T09:17:06.542Z,4.63
2018-03-24T09:18:16.507Z,4.71
2018-03-24T09:19:26.468Z,4.71
2018-03-24T09:20:36.447Z,4.83
2018-03-24T09:21:46.164Z,4.89
2018-03-24T09:22:55.360Z,4.83
2018-03-24T09:24:04.795Z,4.78
2018-03-24T09:25:14.495Z,4.84
2018-03-24T09:26:24.467Z,5.02
2018-03-24T09:27:33.652Z,5.07
2018-03-24T09:28:43.610Z,5.18
2018-03-24T09:29:53.587Z,5.19
2018-03-24T09:31:03.556Z,5.19
2018-03-24T09:32:13.534Z,5.29
2018-03-24T09:33:23.251Z,5.29
2018-03-24T09:34:33.230Z,5.43
2018-03-24T09:35:42.681Z,5.36
2018-03-24T09:36:52.392Z,5.36
2018-03-24T09:38:01.589Z,5.26
2018-03-24T09:39:11.561Z,5.33
2018-03-24T09:40:21.519Z,5.31
2018-03-24T09:41:30.975Z,5.26
2018-03-24T09:42:40.692Z,5.36
2018-03-24T09:43:50.720Z,5.28
2018-03-24T09:45:00.430Z,5.2
2018-03-24T09:46:10.407Z,5.22
2018-03-24T09:47:19.852Z,5.26
2018-03-24T09:48:29.600Z,5.37
2018-03-24T09:49:39.046Z,5.49
2018-03-24T09:50:48.756Z,5.56
2018-03-24T09:51:58.485Z,5.65
2018-03-24T09:53:08.185Z,5.76
2018-03-24T09:54:17.890Z,5.8
2018-03-24T09:55:27.331Z,5.92
2018-03-24T09:56:37.292Z,6.09
2018-03-24T09:57:47.272Z,6.07
2018-03-24T09:58:56.724Z,6.15
2018-03-24T10:00:06.440Z,6.35
2018-03-24T10:01:15.624Z,6.29
2018-03-24T10:02:25.588Z,6.36
2018-03-24T10:03:35.308Z,6.41
2018-03-24T10:04:45.292Z,6.36
2018-03-24T10:05:55.006Z,6.39
2018-03-24T10:07:05.003Z,6.36
2018-03-24T10:08:14.726Z,6.39
2018-03-24T10:09:24.703Z,6.36
2018-03-24T10:10:34.692Z,6.36
2018-03-24T10:11:44.405Z,6.34
2018-03-24T10:12:53.865Z,6.32
2018-03-24T10:14:03.316Z,6.28
2018-03-24T10:15:13.292Z,6.38
2018-03-24T10:16:22.994Z,6.52
2018-03-24T10:17:32.439Z,6.65
2018-03-24T10:18:42.173Z,6.74
2018-03-24T10:19:52.153Z,6.89
2018-03-24T10:21:01.600Z,6.9
2018-03-24T10:22:11.687Z,6.96
2018-03-24T10:23:21.656Z,7.14
2018-03-24T10:24:31.112Z,7.15
2018-03-24T10:25:40.560Z,7.1
2018-03-24T10:26:50.015Z,6.97
2018-03-24T10:28:00.000Z,7.22
2018-03-24T10:29:09.959Z,7.33
2018-03-24T10:30:19.934Z,7.5
2018-03-24T10:31:29.660Z,7.56
2018-03-24T10:32:39.117Z,7.61
2018-03-24T10:33:48.834Z,7.62
2018-03-24T10:34:58.549Z,7.69
2018-03-24T10:36:08.530Z,7.8
2018-03-24T10:37:18.502Z,7.7
2018-03-24T10:38:28.474Z,7.75
2018-03-24T10:39:37.938Z,7.62
2018-03-24T10:40:47.907Z,7.8
2018-03-24T10:41:57.881Z,7.62
2018-03-24T10:43:07.879Z,7.78
2018-03-24T10:44:17.338Z,7.75
2018-03-24T10:45:27.055Z,7.78
2018-03-24T10:46:36.797Z,7.83
2018-03-24T10:47:46.777Z,7.84
2018-03-24T10:48:56.745Z,7.67
2018-03-24T10:50:06.739Z,7.66
2018-03-24T10:51:15.915Z,7.83
2018-03-24T10:52:25.691Z,7.77
2018-03-24T10:53:35.413Z,7.88
2018-03-24T10:54:45.149Z,7.87
2018-03-24T10:55:55.108Z,7.87
2018-03-24T10:57:04.566Z,7.75
2018-03-24T10:58:14.280Z,7.77
2018-03-24T10:59:24.287Z,7.74
2018-03-24T11:00:34.285Z,7.75
2018-03-24T11:01:44.010Z,7.64
2018-03-24T11:02:53.726Z,7.5
2018-03-24T11:04:03.200Z,7.48
2018-03-24T11:05:12.985Z,7.31
2018-03-24T11:06:22.694Z,7.21
2018-03-24T11:07:32.147Z,7.14
2018-03-24T11:08:42.125Z,7.05
2018-03-24T11:09:52.091Z,7.04
2018-03-24T11:11:01.810Z,7.19
2018-03-24T11:12:11.528Z,7.31
2018-03-24T11:13:21.257Z,7.31
2018-03-24T11:14:30.978Z,7.32
2018-03-24T11:15:40.709Z,7.33
2018-03-24T11:16:50.430Z,7.36
2018-03-24T11:18:00.424Z,7.39
2018-03-24T11:19:10.143Z,7.41
2018-03-24T11:20:19.608Z,7.46
2018-03-24T11:21:29.313Z,7.39
2018-03-24T11:22:39.295Z,7.41
2018-03-24T11:23:49.024Z,7.41
2018-03-24T11:24:58.747Z,7.37
2018-03-24T11:26:08.198Z,7.5
2018-03-24T11:27:18.224Z,7.64
2018-03-24T11:28:27.929Z,7.64
2018-03-24T11:29:37.384Z,7.61
2018-03-24T11:30:47.375Z,7.59
2018-03-24T11:31:56.819Z,7.39
2018-03-24T11:33:06.680Z,7.43
2018-03-24T11:34:16.715Z,7.59
2018-03-24T11:35:26.685Z,7.61
2018-03-24T11:36:36.382Z,7.44
2018-03-24T11:37:46.357Z,7.48
2018-03-24T11:38:56.324Z,7.36
2018-03-24T11:40:06.301Z,7.29
2018-03-24T11:41:15.737Z,7.29
2018-03-24T11:42:25.185Z,7.18
2018-03-24T11:43:35.218Z,7.18
2018-03-24T11:44:44.678Z,7.19
2018-03-24T11:45:54.655Z,7.29
2018-03-24T11:47:04.093Z,7.28
2018-03-24T11:48:14.079Z,7.28
2018-03-24T11:49:23.804Z,7.36
2018-03-24T11:50:33.779Z,7.25
2018-03-24T11:51:43.231Z,7.37
2018-03-24T11:52:52.948Z,7.4
2018-03-24T11:54:02.916Z,7.48
2018-03-24T11:55:12.103Z,7.39
2018-03-24T11:56:21.556Z,7.26
2018-03-24T11:57:31.021Z,7.14
2018-03-24T11:58:40.741Z,7.26
2018-03-24T11:59:49.940Z,7.28
2018-03-24T12:00:59.387Z,7.37
2018-03-24T12:02:08.835Z,7.5
2018-03-24T12:03:18.014Z,7.69
2018-03-24T12:04:28.025Z,7.78
2018-03-24T12:05:37.753Z,7.91
2018-03-24T12:06:47.482Z,8.06
2018-03-24T12:07:57.478Z,8.13
2018-03-24T12:09:07.196Z,8.21
2018-03-24T12:10:17.181Z,8.26
2018-03-24T12:11:27.158Z,7.99
2018-03-24T12:12:36.871Z,7.9
2018-03-24T12:13:46.319Z,7.77
2018-03-24T12:14:55.785Z,7.53
2018-03-24T12:16:05.502Z,7.26
2018-03-24T12:17:15.229Z,7.21
2018-03-24T12:18:24.950Z,7.13
2018-03-24T12:19:34.917Z,7.26
2018-03-24T12:20:44.646Z,7.39
2018-03-24T12:21:54.095Z,7.51
2018-03-24T12:23:03.796Z,7.48
2018-03-24T12:24:13.505Z,7.51
2018-03-24T12:25:23.465Z,7.61
2018-03-24T12:26:32.981Z,7.62
2018-03-24T12:27:42.438Z,7.7
2018-03-24T12:28:51.889Z,7.74
2018-03-24T12:30:01.347Z,7.77
2018-03-24T12:31:11.325Z,7.75
2018-03-24T12:32:21.318Z,7.7
2018-03-24T12:33:31.294Z,7.83
2018-03-24T12:34:40.745Z,7.78
2018-03-24T12:35:50.744Z,7.75
2018-03-24T12:37:00.721Z,7.8
2018-03-24T12:38:10.203Z,7.88
2018-03-24T12:39:19.921Z,7.87
2018-03-24T12:40:29.917Z,7.74
2018-03-24T12:41:39.896Z,7.91
2018-03-24T12:42:49.861Z,7.91
2018-03-24T12:43:59.837Z,7.87
2018-03-24T12:45:09.538Z,7.9
2018-03-24T12:46:19.524Z,7.78
2018-03-24T12:47:29.764Z,7.81
2018-03-24T12:48:39.480Z,7.59
2018-03-24T12:49:49.444Z,7.31
2018-03-24T12:50:59.421Z,7.15
2018-03-24T12:52:09.389Z,7.21
2018-03-24T12:53:19.101Z,7.21
2018-03-24T12:54:28.808Z,7.15
2018-03-24T12:55:38.534Z,7.13
2018-03-24T12:56:48.552Z,7.22
2018-03-24T12:57:58.517Z,7.37
2018-03-24T12:59:08.501Z,7.37
2018-03-24T13:00:18.224Z,7.5
2018-03-24T13:01:28.190Z,7.56
2018-03-24T13:02:38.154Z,7.74
2018-03-24T13:03:47.863Z,7.64
2018-03-24T13:04:57.849Z,7.78
2018-03-24T13:06:07.556Z,7.9
2018-03-24T13:07:17.262Z,8.08
2018-03-24T13:08:27.529Z,8.34
2018-03-24T13:09:37.555Z,8.57
2018-03-24T13:10:47.518Z,8.69
2018-03-24T13:11:57.495Z,8.89
2018-03-24T13:13:07.213Z,8.99
2018-03-24T13:14:17.176Z,8.9
2018-03-24T13:15:27.157Z,8.68
2018-03-24T13:16:37.147Z,8.59
2018-03-24T13:17:46.602Z,8.53
2018-03-24T13:18:56.054Z,8.38
2018-03-24T13:20:05.256Z,8.57
2018-03-24T13:21:15.241Z,8.68
2018-03-24T13:22:25.214Z,8.9
2018-03-24T13:23:34.678Z,8.87
2018-03-24T13:24:44.666Z,8.89
2018-03-24T13:25:54.619Z,8.97
2018-03-24T13:27:04.120Z,8.93
2018-03-24T13:28:13.843Z,9.05
2018-03-24T13:29:23.298Z,9.26
2018-03-24T13:30:32.533Z,9.45
2018-03-24T13:31:42.506Z,9.72
2018-03-24T13:32:52.482Z,9.94
2018-03-24T13:34:02.211Z,10.02
2018-03-24T13:35:11.921Z,9.97
2018-03-24T13:36:21.395Z,9.95
2018-03-24T13:37:31.368Z,10
2018-03-24T13:38:41.078Z,10.05
2018-03-24T13:39:50.274Z,10
2018-03-24T13:41:00.245Z,9.84
2018-03-24T13:42:10.265Z,9.49
2018-03-24T13:43:20.256Z,8.93
2018-03-24T13:44:29.974Z,8.69
2018-03-24T13:45:39.943Z,8.64
2018-03-24T13:46:49.925Z,8.34
2018-03-24T13:47:59.911Z,8.38
2018-03-24T13:49:09.892Z,8.52
2018-03-24T13:50:19.871Z,8.46
2018-03-24T13:51:29.591Z,8.45
2018-03-24T13:52:39.315Z,8.59
2018-03-24T13:53:49.033Z,8.68
2018-03-24T13:54:58.996Z,8.87
2018-03-24T13:56:08.705Z,8.89
2018-03-24T13:57:18.690Z,9
2018-03-24T13:58:28.668Z,9.19
2018-03-24T13:59:38.117Z,9.21
2018-03-24T14:00:47.313Z,9.42
2018-03-24T14:01:57.278Z,9.26
2018-03-24T14:03:06.468Z,9.15
2018-03-24T14:04:16.440Z,8.96
2018-03-24T14:05:26.149Z,9.03
2018-03-24T14:06:36.143Z,9.18
2018-03-24T14:07:46.114Z,9.26
2018-03-24T14:08:56.106Z,9.44
2018-03-24T14:10:06.105Z,9.26
2018-03-24T14:11:16.085Z,9.36
2018-03-24T14:12:25.838Z,9.45
2018-03-24T14:13:35.555Z,9.59
2018-03-24T14:14:45.025Z,9.48
2018-03-24T14:15:55.004Z,9.16
2018-03-24T14:17:04.786Z,9.03
2018-03-24T14:18:14.807Z,9
2018-03-24T14:19:24.530Z,8.89
2018-03-24T14:20:34.504Z,8.99
2018-03-24T14:21:44.227Z,9.19
2018-03-24T14:22:53.933Z,9.27
2018-03-24T14:24:03.906Z,9.56
2018-03-24T14:25:13.621Z,9.8
2018-03-24T14:26:23.325Z,10.03
2018-03-24T14:27:32.776Z,10.24
2018-03-24T14:28:42.510Z,10.3
2018-03-24T14:29:52.222Z,10.31
2018-03-24T14:31:01.409Z,10.15
2018-03-24T14:32:11.130Z,9.81
2018-03-24T14:33:20.848Z,9.47
2018-03-24T14:34:30.826Z,9.56
2018-03-24T14:35:40.814Z,9.47
2018-03-24T14:36:50.545Z,9.44
2018-03-24T14:38:00.669Z,9.48
2018-03-24T14:39:10.667Z,9.45
2018-03-24T14:40:20.386Z,9.24
2018-03-24T14:41:30.112Z,9.09
2018-03-24T14:42:40.101Z,8.93
2018-03-24T14:43:50.071Z,9.11
2018-03-24T14:44:59.790Z,9.18
2018-03-24T14:46:09.792Z,9.44
2018-03-24T14:47:19.778Z,9.91
2018-03-24T14:48:29.757Z,10.3
2018-03-24T14:49:39.758Z,10.49
2018-03-24T14:50:49.476Z,10.49
2018-03-24T14:51:59.457Z,10.58
2018-03-24T14:53:09.446Z,10.72
2018-03-24T14:54:19.165Z,10.77
2018-03-24T14:55:29.152Z,10.68
2018-03-24T14:56:38.880Z,10.89
2018-03-24T14:57:48.887Z,10.79
2018-03-24T14:58:58.880Z,10.65
2018-03-24T15:00:08.607Z,10.77
2018-03-24T15:01:18.322Z,11.13
2018-03-24T15:02:28.301Z,11.4
2018-03-24T15:03:38.286Z,11.05
2018-03-24T15:04:47.999Z,10.94
2018-03-24T15:05:57.992Z,10.89
2018-03-24T15:07:07.700Z,11.01
2018-03-24T15:08:16.894Z,11.48
2018-03-24T15:09:26.880Z,12
2018-03-24T15:10:36.547Z,12.45
2018-03-24T15:11:46.261Z,12.66
2018-03-24T15:12:55.987Z,12.48
2018-03-24T15:14:05.718Z,11.97
2018-03-24T15:15:14.937Z,11.78
2018-03-24T15:16:24.395Z,11.85
2018-03-24T15:17:34.109Z,11.85
2018-03-24T15:18:44.094Z,11.65
2018-03-24T15:19:54.079Z,11.23
2018-03-24T15:21:03.791Z,11.22
2018-03-24T15:22:13.515Z,11.26
2018-03-24T15:23:23.244Z,11.8
2018-03-24T15:24:33.239Z,12.12
2018-03-24T15:25:42.708Z,12.08
2018-03-24T15:26:51.906Z,11.97
2018-03-24T15:28:01.355Z,11.99
2018-03-24T15:29:10.810Z,11.68
2018-03-24T15:30:20.265Z,11.41
2018-03-24T15:31:29.738Z,11.44